createdAt,value
2023-12-04T00:00:06.893Z,-2.11
2023-12-04T00:03:40.604Z,-2.15
2023-12-04T00:06:54.422Z,-2.26
2023-12-04T00:10:23.863Z,-2.15
2023-12-04T00:14:06.938Z,-2.32
2023-12-04T00:17:43.238Z,-2.19
2023-12-04T00:20:55.984Z,-2.40
2023-12-04T00:24:17.686Z,-2.36
2023-12-04T00:27:36.963Z,-2.40
2023-12-04T00:30:47.602Z,-2.15
2023-12-04T00:34:06.252Z,-2.20
2023-12-04T00:37:27.046Z,-2.43
2023-12-04T00:40:37.613Z,-2.23
2023-12-04T00:43:44.384Z,-2.39
2023-12-04T00:46:52.389Z,-2.31
2023-12-04T00:49:56.864Z,-2.32
2023-12-04T00:53:01.808Z,-2.31
2023-12-04T00:56:13.776Z,-2.35
2023-12-04T00:59:23.096Z,-2.53
2023-12-04T01:02:45.873Z,-2.39
2023-12-04T01:06:06.488Z,-2.38
2023-12-04T01:09:15.812Z,-2.60
2023-12-04T01:12:30.461Z,-2.49
2023-12-04T01:15:46.027Z,-2.54
2023-12-04T01:19:05.011Z,-2.55
2023-12-04T01:22:37.499Z,-2.61
2023-12-04T01:26:03.257Z,-2.86
2023-12-04T01:32:52.588Z,-2.86
2023-12-04T01:36:04.908Z,-2.84
2023-12-04T01:39:20.667Z,-3.01
2023-12-04T01:43:36.104Z,-3.00
2023-12-04T01:47:33.624Z,-3.12
2023-12-04T01:50:49.782Z,-3.08
2023-12-04T01:54:07.480Z,-3.04
2023-12-04T01:57:19.649Z,-3.21
2023-12-04T02:00:28.572Z,-3.12
2023-12-04T02:03:42.835Z,-3.19
2023-12-04T02:06:51.828Z,-3.23
2023-12-04T02:10:03.987Z,-3.35
2023-12-04T02:13:26.730Z,-3.22
2023-12-04T02:16:35.530Z,-3.35
2023-12-04T02:19:39.942Z,-3.23
2023-12-04T02:22:49.959Z,-3.36
2023-12-04T02:26:11.777Z,-3.40
2023-12-04T02:29:28.761Z,-3.41
2023-12-04T02:32:40.852Z,-3.22
2023-12-04T02:35:48.828Z,-3.34
2023-12-04T02:39:30.843Z,-3.31
2023-12-04T02:47:33.995Z,-3.37
2023-12-04T02:51:10.328Z,-3.31
2023-12-04T02:58:42.444Z,-3.32
2023-12-04T03:02:12.441Z,-3.36
2023-12-04T03:06:02.793Z,-3.48
2023-12-04T03:09:48.622Z,-3.35
2023-12-04T03:13:44.440Z,-3.40
2023-12-04T03:17:19.473Z,-3.56
2023-12-04T03:20:47.019Z,-3.47
2023-12-04T03:24:04.233Z,-3.53
2023-12-04T03:27:15.714Z,-3.45
2023-12-04T03:30:33.457Z,-3.44
2023-12-04T03:33:58.776Z,-3.67
2023-12-04T03:37:06.261Z,-3.63
2023-12-04T03:40:16.127Z,-3.72
2023-12-04T03:43:49.106Z,-3.65
2023-12-04T03:47:07.801Z,-3.68
2023-12-04T03:50:17.814Z,-3.65
2023-12-04T03:53:38.658Z,-3.44
2023-12-04T03:56:48.887Z,-3.67
2023-12-04T04:00:19.365Z,-3.51
2023-12-04T04:03:41.865Z,-3.54
2023-12-04T04:06:55.417Z,-3.82
2023-12-04T04:10:05.961Z,-3.75
2023-12-04T04:13:35.292Z,-3.69
2023-12-04T04:16:47.877Z,-3.62
2023-12-04T04:20:14.659Z,-3.76
2023-12-04T04:23:34.258Z,-3.48
2023-12-04T04:26:44.629Z,-3.34
2023-12-04T04:29:55.282Z,-3.66
2023-12-04T04:33:12.012Z,-3.62
2023-12-04T04:36:27.890Z,-3.47
2023-12-04T04:39:37.770Z,-3.33
2023-12-04T04:42:42.715Z,-3.34
2023-12-04T04:45:52.869Z,-3.43
2023-12-04T04:49:00.407Z,-3.69
2023-12-04T04:52:09.738Z,-3.62
2023-12-04T04:55:46.257Z,-3.73
2023-12-04T04:58:53.223Z,-3.83
2023-12-04T05:01:59.802Z,-3.55
2023-12-04T05:05:33.478Z,-3.56
2023-12-04T05:08:41.639Z,-3.30
2023-12-04T05:11:45.328Z,-3.38
2023-12-04T05:14:48.502Z,-3.52
2023-12-04T05:17:59.468Z,-3.61
2023-12-04T05:21:22.178Z,-3.71
2023-12-04T05:24:30.066Z,-3.77
2023-12-04T05:27:40.097Z,-3.66
2023-12-04T05:30:56.822Z,-3.62
2023-12-04T05:34:04.555Z,-3.63
2023-12-04T05:42:18.158Z,-3.91
2023-12-04T05:46:06.202Z,-3.78
2023-12-04T05:49:43.700Z,-3.78
2023-12-04T05:52:51.711Z,-3.90
2023-12-04T05:56:01.898Z,-3.86
2023-12-04T05:59:21.567Z,-4.02
2023-12-04T06:02:58.460Z,-4.13
2023-12-04T06:06:11.156Z,-3.99
2023-12-04T06:09:39.000Z,-4.22
2023-12-04T06:13:47.373Z,-3.93
2023-12-04T06:17:00.742Z,-4.03
2023-12-04T06:24:51.719Z,-3.77
2023-12-04T06:32:53.116Z,-3.80
2023-12-04T06:36:47.691Z,-3.86
2023-12-04T07:07:16.711Z,-3.58
2023-12-04T07:11:54.494Z,-3.65
2023-12-04T07:40:15.462Z,-3.26
2023-12-04T07:43:27.041Z,-3.24
2023-12-04T07:47:14.329Z,-3.29
2023-12-04T07:58:31.790Z,-3.03
2023-12-04T08:06:07.401Z,-3.03
2023-12-04T08:09:19.051Z,-3.03
2023-12-04T08:35:33.043Z,-2.56
2023-12-04T08:38:59.916Z,-2.43
2023-12-04T08:54:34.231Z,-2.14
2023-12-04T12:33:53.561Z,0.59
2023-12-04T12:37:48.219Z,0.68
2023-12-04T12:41:30.690Z,0.63
2023-12-04T12:45:00.378Z,0.65
2023-12-04T12:48:23.747Z,0.72
2023-12-04T12:51:34.874Z,0.62
2023-12-04T12:58:25.729Z,0.59
2023-12-04T13:02:02.754Z,0.66
2023-12-04T13:05:26.040Z,0.57
2023-12-04T13:08:52.316Z,0.66
2023-12-04T13:12:08.200Z,0.64
2023-12-04T13:15:33.378Z,0.54
2023-12-04T13:19:26.852Z,0.53
2023-12-04T13:23:23.429Z,0.56
2023-12-04T13:26:50.404Z,0.45
2023-12-04T13:30:07.945Z,0.48
2023-12-04T13:33:46.033Z,0.47
2023-12-04T13:37:10.084Z,0.47
2023-12-04T13:43:52.510Z,0.35
2023-12-04T13:46:59.979Z,0.41
2023-12-04T13:50:03.203Z,0.41
2023-12-04T13:53:08.112Z,0.28
2023-12-04T13:56:26.908Z,0.28
2023-12-04T13:59:36.745Z,0.31
2023-12-04T14:02:39.565Z,0.39
2023-12-04T14:05:48.686Z,0.39
2023-12-04T14:09:02.392Z,0.27
2023-12-04T14:12:10.435Z,0.36
2023-12-04T14:15:21.519Z,0.30
2023-12-04T14:18:28.508Z,0.28
2023-12-04T14:21:33.069Z,0.22
2023-12-04T14:24:41.770Z,0.26
2023-12-04T14:27:48.519Z,0.16
2023-12-04T14:30:55.799Z,0.21
2023-12-04T14:33:58.362Z,0.18
2023-12-04T14:37:03.119Z,0.24
2023-12-04T14:40:05.882Z,0.09
2023-12-04T14:43:21.038Z,0.12
2023-12-04T14:46:24.296Z,0.20
2023-12-04T14:49:29.546Z,0.16
2023-12-04T14:52:35.191Z,0.17
2023-12-04T14:56:11.074Z,0.16
2023-12-04T14:59:34.074Z,0.16
2023-12-04T15:02:58.236Z,0.18
2023-12-04T15:06:01.275Z,0.11
2023-12-04T15:09:26.904Z,0.10
2023-12-04T15:12:57.087Z,0.15
2023-12-04T15:16:22.502Z,0.18
2023-12-04T15:19:39.012Z,0.08
2023-12-04T15:22:43.487Z,0.19
2023-12-04T15:25:46.873Z,0.19
2023-12-04T15:28:51.399Z,0.13
2023-12-04T15:31:55.573Z,0.11
2023-12-04T15:35:01.976Z,0.12
2023-12-04T15:38:06.533Z,0.08
2023-12-04T15:41:14.416Z,0.10
2023-12-04T15:44:16.891Z,0.09
2023-12-04T15:47:22.208Z,0.10
2023-12-04T15:50:26.616Z,0.09
2023-12-04T15:53:30.088Z,0.10
2023-12-04T15:56:32.370Z,0.05
2023-12-04T15:59:42.812Z,-0.02
2023-12-04T16:03:54.435Z,-0.14
2023-12-04T16:07:25.678Z,-0.10
2023-12-04T16:10:51.051Z,-0.15
2023-12-04T16:17:48.429Z,-0.17
2023-12-04T16:21:40.102Z,-0.39
2023-12-04T16:24:51.506Z,-0.25
2023-12-04T16:28:17.818Z,-0.45
2023-12-04T16:31:24.059Z,-0.43
2023-12-04T16:34:31.457Z,-0.48
2023-12-04T16:37:43.057Z,-0.42
2023-12-04T16:40:45.206Z,-0.47
2023-12-04T16:43:49.913Z,-0.58
2023-12-04T16:46:58.885Z,-0.59
2023-12-04T16:50:00.975Z,-0.61
2023-12-04T16:53:03.216Z,-0.57
2023-12-04T16:56:15.071Z,-0.64
2023-12-04T16:59:18.649Z,-0.61
2023-12-04T17:02:20.865Z,-0.56
2023-12-04T17:05:23.628Z,-0.57
2023-12-04T17:08:26.368Z,-0.55
2023-12-04T17:11:29.546Z,-0.64
2023-12-04T17:14:31.923Z,-0.64
2023-12-04T17:17:37.165Z,-0.68
2023-12-04T17:20:40.130Z,-0.71
2023-12-04T17:23:42.886Z,-0.75
2023-12-04T17:26:48.502Z,-0.77
2023-12-04T17:29:50.615Z,-0.78
2023-12-04T17:32:53.165Z,-0.82
2023-12-04T17:35:57.643Z,-0.83
2023-12-04T17:38:59.971Z,-0.87
2023-12-04T17:42:02.305Z,-0.90
2023-12-04T17:45:05.588Z,-0.88
2023-12-04T17:48:09.152Z,-0.88
2023-12-04T17:51:21.847Z,-0.89
2023-12-04T17:54:25.375Z,-0.88
2023-12-04T17:57:28.235Z,-0.92
2023-12-04T18:00:35.368Z,-0.84
2023-12-04T18:03:39.755Z,-0.86
2023-12-04T18:06:46.053Z,-0.88
2023-12-04T18:09:49.952Z,-0.84
2023-12-04T18:12:53.761Z,-0.95
2023-12-04T18:15:57.397Z,-0.96
2023-12-04T18:19:00.221Z,-0.97
2023-12-04T18:22:02.438Z,-0.98
2023-12-04T18:25:05.095Z,-0.96
2023-12-04T18:28:11.693Z,-0.99
2023-12-04T18:31:15.744Z,-1.06
2023-12-04T18:34:22.483Z,-1.06
2023-12-04T18:37:36.985Z,-1.11
2023-12-04T18:40:39.939Z,-1.14
2023-12-04T18:43:42.774Z,-1.18
2023-12-04T18:46:45.703Z,-1.19
2023-12-04T18:49:54.359Z,-1.18
2023-12-04T18:52:57.099Z,-1.20
2023-12-04T18:55:59.137Z,-1.19
2023-12-04T18:59:05.780Z,-1.18
2023-12-04T19:02:09.767Z,-1.17
2023-12-04T19:05:12.759Z,-1.21
2023-12-04T19:08:19.943Z,-1.20
2023-12-04T19:11:22.040Z,-1.18
2023-12-04T19:14:25.452Z,-1.21
2023-12-04T19:17:28.085Z,-1.22
2023-12-04T19:20:32.350Z,-1.33
2023-12-04T19:23:35.181Z,-1.21
2023-12-04T19:26:37.666Z,-1.23
2023-12-04T19:29:40.503Z,-1.26
2023-12-04T19:32:44.406Z,-1.18
2023-12-04T19:35:46.968Z,-1.22
2023-12-04T19:38:49.402Z,-1.22
2023-12-04T19:41:51.817Z,-1.26
2023-12-04T19:44:57.128Z,-1.22
2023-12-04T19:48:02.087Z,-1.22
2023-12-04T19:51:06.034Z,-1.29
2023-12-04T19:54:08.578Z,-1.28
2023-12-04T19:57:14.555Z,-1.27
2023-12-04T20:00:17.876Z,-1.31
2023-12-04T20:03:23.872Z,-1.32
2023-12-04T20:06:28.423Z,-1.31
2023-12-04T20:09:32.836Z,-1.32
2023-12-04T20:12:36.199Z,-1.34
2023-12-04T20:15:38.869Z,-1.39
2023-12-04T20:18:43.165Z,-1.34
2023-12-04T20:21:45.945Z,-1.48
2023-12-04T20:24:49.611Z,-1.44
2023-12-04T20:27:52.729Z,-1.38
2023-12-04T20:30:56.637Z,-1.37
2023-12-04T20:33:59.077Z,-1.30
2023-12-04T20:37:02.643Z,-1.37
2023-12-04T20:40:06.278Z,-1.30
2023-12-04T20:43:10.089Z,-1.38
2023-12-04T20:46:14.940Z,-1.44
2023-12-04T20:49:19.546Z,-1.38
2023-12-04T20:52:21.954Z,-1.34
2023-12-04T20:55:28.233Z,-1.38
2023-12-04T20:58:31.167Z,-1.40
2023-12-04T21:01:34.030Z,-1.51
2023-12-04T21:04:36.575Z,-1.47
2023-12-04T21:07:39.132Z,-1.52
2023-12-04T21:10:42.290Z,-1.47
2023-12-04T21:13:44.606Z,-1.48
2023-12-04T21:16:55.366Z,-1.48
2023-12-04T21:20:04.656Z,-1.51
2023-12-04T21:23:10.817Z,-1.47
2023-12-04T21:26:13.557Z,-1.48
2023-12-04T21:29:15.813Z,-1.53
2023-12-04T21:32:18.840Z,-1.52
2023-12-04T21:35:21.133Z,-1.49
2023-12-04T21:38:23.393Z,-1.58
2023-12-04T21:41:25.562Z,-1.50
2023-12-04T21:44:27.728Z,-1.53
2023-12-04T21:47:29.932Z,-1.55
2023-12-04T21:50:31.953Z,-1.54
2023-12-04T21:53:35.759Z,-1.53
2023-12-04T21:56:38.514Z,-1.55
2023-12-04T21:59:41.073Z,-1.55
2023-12-04T22:02:46.165Z,-1.58
2023-12-04T22:05:50.513Z,-1.61
2023-12-04T22:08:53.589Z,-1.63
2023-12-04T22:11:57.068Z,-1.64
2023-12-04T22:14:59.693Z,-1.62
2023-12-04T22:18:02.871Z,-1.62
2023-12-04T22:21:06.073Z,-1.65
2023-12-04T22:24:09.200Z,-1.69
2023-12-04T22:27:11.863Z,-1.68
2023-12-04T22:30:14.365Z,-1.65
2023-12-04T22:33:18.217Z,-1.77
2023-12-04T22:36:20.966Z,-1.76
2023-12-04T22:39:23.850Z,-1.74
2023-12-04T22:42:26.159Z,-1.71
2023-12-04T22:45:28.767Z,-1.69
2023-12-04T22:48:32.425Z,-1.71
2023-12-04T22:51:34.665Z,-1.83
2023-12-04T22:54:37.524Z,-1.79
2023-12-04T22:57:40.049Z,-1.74
2023-12-04T23:00:43.312Z,-1.76
2023-12-04T23:03:45.562Z,-1.76
2023-12-04T23:06:48.721Z,-1.75
2023-12-04T23:09:51.269Z,-1.77
2023-12-04T23:12:57.904Z,-1.79
2023-12-04T23:16:00.263Z,-1.73
2023-12-04T23:19:04.886Z,-1.76
2023-12-04T23:22:08.465Z,-1.68
2023-12-04T23:25:11.009Z,-1.67
2023-12-04T23:28:13.668Z,-1.62
2023-12-04T23:31:19.117Z,-1.59
2023-12-04T23:34:22.890Z,-1.58
2023-12-04T23:37:26.738Z,-1.51
2023-12-04T23:40:28.984Z,-1.40
2023-12-04T23:43:31.452Z,-1.48
2023-12-04T23:46:33.762Z,-1.38
2023-12-04T23:49:37.357Z,-1.40
2023-12-04T23:52:39.872Z,-1.47
2023-12-04T23:55:43.557Z,-1.54
2023-12-04T23:58:45.892Z,-1.56
